Time;durP1;ratioP1;P1;durP2;ratioP2;P2;SDS_P1;SDS_P2;PMS_P1;PMS_P2;Temp;Humidity;BMP_temperature;BMP_pressure;BME280_temperature;BME280_humidity;BME280_pressure;Samples;Min_cycle;Max_cycle;Signal;HPM_P1;HPM_P2
2023/04/08 00:01:39;;;;;;;;;;;8.30;99.90;;;;;;5110169;28;19924;-67
2023/04/08 00:04:08;;;;;;;;;;;8.30;99.90;;;;;;5114081;28;19971;-67
2023/04/08 00:06:36;;;;;;;;;;;8.30;99.90;;;;;;5108164;28;19963;-67
2023/04/08 00:09:03;;;;;;;;;;;8.30;99.90;;;;;;5105919;28;19939;-67
2023/04/08 00:11:29;;;;;;;;;;;8.30;99.90;;;;;;5110901;28;19931;-67
2023/04/08 00:13:56;;;;;;;;;;;8.30;99.90;;;;;;5114386;28;19923;-67
2023/04/08 00:16:23;;;;;;;;;;;8.40;99.90;;;;;;5098473;28;19925;-67
2023/04/08 00:18:50;;;;;;;;;;;8.40;99.90;;;;;;5113562;28;19962;-67
2023/04/08 00:21:19;;;;;;;;;;;8.40;99.90;;;;;;5111325;28;20002;-67
2023/04/08 00:23:47;;;;;;;;;;;8.40;99.90;;;;;;5111578;28;19924;-67
2023/04/08 00:26:14;;;;;;;;;;;8.30;99.90;;;;;;5104151;27;19924;-68
2023/04/08 00:28:42;;;;;;;;;;;;;;;;;;5111572;28;19989;-68
2023/04/08 00:31:08;;;;;;;;;;;;;;;;;;5107481;28;20624;-68
2023/04/08 00:33:35;;;;;;;;;;;8.30;99.90;;;;;;5111784;28;20417;-68
2023/04/08 00:36:02;;;;;;;;;;;8.40;99.90;;;;;;5102950;28;19924;-68
2023/04/08 00:38:29;;;;;;;;;;;8.30;99.90;;;;;;5110596;28;19924;-68
2023/04/08 00:40:57;;;;;;;;;;;8.40;99.90;;;;;;5114022;28;21755;-67
2023/04/08 00:43:24;;;;;;;;;;;8.20;99.90;;;;;;5114762;28;20387;-67
2023/04/08 00:45:50;;;;;;;;;;;8.30;99.90;;;;;;5103013;28;19924;-67
2023/04/08 00:48:17;;;;;;;;;;;8.30;99.90;;;;;;5112094;28;19923;-67
2023/04/08 00:50:45;;;;;;;;;;;8.20;99.90;;;;;;5113837;28;20022;-67
2023/04/08 00:53:13;;;;;;;;;;;8.20;99.90;;;;;;5111048;28;19964;-68
2023/04/08 00:55:39;;;;;;;;;;;8.20;99.90;;;;;;5112449;28;20021;-67
2023/04/08 00:58:06;;;;;;;;;;;;;;;;;;5112702;28;19924;-66
2023/04/08 01:00:33;;;;;;;;;;;;;;;;;;5113109;28;19923;-67
2023/04/08 01:03:00;;;;;;;;;;;;;;;;;;5107382;28;19959;-67
2023/04/08 01:05:30;;;;;;;;;;;8.10;99.90;;;;;;5105328;28;19932;-66
2023/04/08 01:07:59;;;;;;;;;;;8.30;99.90;;;;;;5103812;28;20306;-67
2023/04/08 01:10:27;;;;;;;;;;;8.30;99.90;;;;;;5110085;28;19945;-67
2023/04/08 01:12:54;;;;;;;;;;;8.30;99.90;;;;;;5113517;28;19923;-67
2023/04/08 01:15:21;;;;;;;;;;;8.30;99.90;;;;;;5112246;28;19969;-67
2023/04/08 01:17:49;;;;;;;;;;;8.30;99.90;;;;;;5111387;27;19923;-67
2023/04/08 01:20:16;;;;;;;;;;;8.30;99.90;;;;;;5111901;28;20293;-67
2023/04/08 01:22:53;;;;;;;;;;;8.30;99.90;;;;;;5109938;28;19973;-67
2023/04/08 01:25:21;;;;;;;;;;;8.30;99.90;;;;;;5112851;28;19924;-67
2023/04/08 01:27:48;;;;;;;;;;;;;;;;;;5109641;28;20003;-68
2023/04/08 01:30:15;;;;;;;;;;;;;;;;;;5111352;28;19923;-68
2023/04/08 01:32:42;;;;;;;;;;;;;;;;;;5110334;28;19943;-68
2023/04/08 01:35:09;;;;;;;;;;;;;;;;;;5113570;28;19946;-68
2023/04/08 01:37:36;;;;;;;;;;;;;;;;;;5110611;28;19932;-67
2023/04/08 01:40:03;;;;;;;;;;;;;;;;;;5110566;28;19924;-68
2023/04/08 01:42:30;;;;;;;;;;;;;;;;;;5112631;28;19923;-68
2023/04/08 01:44:57;;;;;;;;;;;;;;;;;;5112740;28;19923;-68
2023/04/08 01:47:26;;;;;;;;;;;8.10;99.90;;;;;;5111370;28;20018;-68
2023/04/08 01:49:52;;;;;;;;;;;;;;;;;;5108445;28;20390;-69
2023/04/08 01:52:19;;;;;;;;;;;;;;;;;;5110492;28;20018;-67
2023/04/08 01:54:46;;;;;;;;;;;;;;;;;;5111291;28;19962;-67
2023/04/08 01:57:13;;;;;;;;;;;;;;;;;;5109543;28;19955;-67
2023/04/08 01:59:41;;;;;;;;;;;9.00;99.90;;;;;;5110757;28;19934;-67
2023/04/08 02:02:08;;;;;;;;;;;;;;;;;;5111868;28;19923;-65
2023/04/08 02:04:36;;;;;;;;;;;7.20;99.90;;;;;;5110383;28;19935;-66
2023/04/08 02:07:03;;;;;;;;;;;;;;;;;;5111150;28;19932;-68
2023/04/08 02:09:30;;;;;;;;;;;;;;;;;;5110188;28;20027;-66
2023/04/08 02:11:57;;;;;;;;;;;;;;;;;;5112440;28;19924;-66
2023/04/08 02:14:25;;;;;;;;;;;7.90;99.90;;;;;;5111814;28;20014;-67
2023/04/08 02:16:53;;;;;;;;;;;8.20;99.90;;;;;;5112294;28;19934;-66
2023/04/08 02:19:24;;;;;;;;;;;8.20;99.90;;;;;;5106509;28;19924;-66
2023/04/08 02:21:55;;;;;;;;;;;8.20;99.90;;;;;;5110174;28;20022;-66
2023/04/08 02:24:22;;;;;;;;;;;8.20;99.90;;;;;;5110107;28;20011;-66
2023/04/08 02:26:50;;;;;;;;;;;8.20;99.90;;;;;;5111351;28;19981;-68
2023/04/08 02:29:19;;;;;;;;;;;8.20;99.90;;;;;;5105304;28;19928;-68
2023/04/08 02:31:47;;;;;;;;;;;8.20;99.90;;;;;;5111617;28;19976;-66
2023/04/08 02:34:14;;;;;;;;;;;8.10;99.90;;;;;;5103299;28;19967;-66
2023/04/08 02:36:44;;;;;;;;;;;;;;;;;;5111993;28;19976;-67
2023/04/08 02:39:12;;;;;;;;;;;;;;;;;;5109509;28;19923;-68
2023/04/08 02:41:38;;;;;;;;;;;;;;;;;;5112198;28;19924;-68
2023/04/08 02:44:05;;;;;;;;;;;;;;;;;;5111436;28;19923;-68
2023/04/08 02:46:32;;;;;;;;;;;;;;;;;;5110815;28;19924;-67
2023/04/08 02:48:59;;;;;;;;;;;;;;;;;;5110659;28;19924;-68
2023/04/08 02:51:27;;;;;;;;;;;8.00;99.90;;;;;;5112616;28;19924;-68
2023/04/08 02:53:54;;;;;;;;;;;8.20;99.90;;;;;;5109858;28;19923;-67
2023/04/08 02:56:21;;;;;;;;;;;8.10;99.90;;;;;;5111651;28;20029;-67
2023/04/08 02:58:48;;;;;;;;;;;8.10;99.90;;;;;;5109880;28;20390;-67
2023/04/08 03:01:16;;;;;;;;;;;;;;;;;;5108789;28;19928;-68
2023/04/08 03:03:43;;;;;;;;;;;;;;;;;;5098137;28;19924;-68
2023/04/08 03:06:10;;;;;;;;;;;8.00;99.90;;;;;;5097843;28;19930;-65
2023/04/08 03:08:38;;;;;;;;;;;8.10;99.90;;;;;;5109800;28;19924;-66
2023/04/08 03:11:05;;;;;;;;;;;8.10;99.90;;;;;;5111431;28;20014;-66
2023/04/08 03:13:31;;;;;;;;;;;8.10;99.90;;;;;;5111795;28;19924;-68
2023/04/08 03:15:58;;;;;;;;;;;8.10;99.90;;;;;;5115341;28;19924;-66
2023/04/08 03:18:25;;;;;;;;;;;8.10;99.90;;;;;;5112271;28;20396;-67
2023/04/08 03:20:51;;;;;;;;;;;8.10;99.90;;;;;;5094990;28;20023;-66
2023/04/08 03:23:18;;;;;;;;;;;;;;;;;;5098558;28;19930;-67
2023/04/08 03:25:46;;;;;;;;;;;8.70;99.90;;;;;;5099586;28;20321;-66
2023/04/08 03:28:13;;;;;;;;;;;;;;;;;;5114784;28;19946;-66
2023/04/08 03:30:40;;;;;;;;;;;8.00;99.90;;;;;;5115915;28;19928;-67
2023/04/08 03:33:07;;;;;;;;;;;8.10;99.90;;;;;;5115349;28;20064;-66
2023/04/08 03:35:34;;;;;;;;;;;8.10;99.90;;;;;;5111173;28;19931;-66
2023/04/08 03:38:01;;;;;;;;;;;;;;;;;;5102878;28;19928;-66
2023/04/08 03:40:28;;;;;;;;;;;;;;;;;;5115727;28;19924;-66
2023/04/08 03:42:55;;;;;;;;;;;;;;;;;;5115435;27;19924;-66
2023/04/08 03:45:22;;;;;;;;;;;;;;;;;;5116013;28;20022;-66
2023/04/08 03:47:49;;;;;;;;;;;;;;;;;;5113067;27;19924;-66
2023/04/08 03:50:16;;;;;;;;;;;;;;;;;;5115639;28;19924;-68
2023/04/08 03:52:43;;;;;;;;;;;;;;;;;;5109512;28;19931;-66
2023/04/08 03:55:10;;;;;;;;;;;;;;;;;;5103121;28;19924;-67
2023/04/08 03:57:37;;;;;;;;;;;;;;;;;;5099435;28;19923;-67
2023/04/08 04:00:04;;;;;;;;;;;;;;;;;;5114276;28;20031;-67
2023/04/08 04:02:32;;;;;;;;;;;7.80;99.90;;;;;;5113172;28;19981;-67
2023/04/08 04:04:59;;;;;;;;;;;;;;;;;;5114566;28;20019;-67
2023/04/08 04:07:25;;;;;;;;;;;;;;;;;;5114127;28;19927;-67
2023/04/08 04:09:55;;;;;;;;;;;7.80;99.90;;;;;;5110052;28;20301;-67
2023/04/08 04:12:22;;;;;;;;;;;7.90;99.90;;;;;;5108881;28;19924;-67
2023/04/08 04:14:49;;;;;;;;;;;7.90;99.90;;;;;;5112472;28;19923;-67
2023/04/08 04:17:15;;;;;;;;;;;7.80;99.90;;;;;;5110291;28;20018;-66
2023/04/08 04:19:43;;;;;;;;;;;7.90;99.90;;;;;;5114421;28;20302;-67
2023/04/08 04:22:10;;;;;;;;;;;7.90;99.90;;;;;;5105232;28;19928;-67
2023/04/08 04:24:37;;;;;;;;;;;8.00;99.90;;;;;;5114369;28;19930;-66
2023/04/08 04:27:03;;;;;;;;;;;8.00;99.90;;;;;;5113045;28;19969;-67
2023/04/08 04:29:31;;;;;;;;;;;8.00;99.90;;;;;;5114056;28;19924;-67
2023/04/08 04:31:57;;;;;;;;;;;8.00;99.90;;;;;;5115076;28;19923;-67
2023/04/08 04:34:24;;;;;;;;;;;8.00;99.90;;;;;;5112121;28;20015;-67
2023/04/08 04:36:52;;;;;;;;;;;8.00;99.90;;;;;;5112850;28;19928;-67
2023/04/08 04:39:18;;;;;;;;;;;7.90;99.90;;;;;;5112379;28;20001;-68
2023/04/08 04:41:47;;;;;;;;;;;8.00;99.90;;;;;;5101954;28;19931;-68
2023/04/08 04:44:14;;;;;;;;;;;7.90;99.90;;;;;;5111595;28;19930;-68
2023/04/08 04:46:41;;;;;;;;;;;7.90;99.90;;;;;;5113563;28;20003;-68
2023/04/08 04:49:08;;;;;;;;;;;7.90;99.90;;;;;;5113455;28;20017;-68
2023/04/08 04:51:34;;;;;;;;;;;8.00;99.90;;;;;;5112166;28;19971;-68
2023/04/08 04:54:02;;;;;;;;;;;7.90;99.90;;;;;;5094424;28;19935;-68
2023/04/08 04:56:29;;;;;;;;;;;7.90;99.90;;;;;;5113962;28;19927;-68
2023/04/08 04:58:56;;;;;;;;;;;8.00;99.90;;;;;;5113459;28;20018;-68
2023/04/08 05:01:22;;;;;;;;;;;8.00;99.90;;;;;;5113089;28;20010;-67
2023/04/08 05:03:49;;;;;;;;;;;7.90;99.90;;;;;;5108669;28;19924;-66
2023/04/08 05:06:15;;;;;;;;;;;8.00;99.90;;;;;;5093750;28;19924;-67
2023/04/08 05:08:42;;;;;;;;;;;8.00;99.90;;;;;;5110601;28;19923;-66
2023/04/08 05:11:10;;;;;;;;;;;8.00;99.90;;;;;;5112677;28;19927;-66
2023/04/08 05:13:37;;;;;;;;;;;8.10;99.90;;;;;;5110423;28;19930;-67
2023/04/08 05:16:04;;;;;;;;;;;8.00;99.90;;;;;;5109430;28;20006;-67
2023/04/08 05:18:30;;;;;;;;;;;8.10;99.90;;;;;;5107197;28;19928;-68
2023/04/08 05:20:58;;;;;;;;;;;8.00;99.90;;;;;;5113169;28;19923;-68
2023/04/08 05:23:25;;;;;;;;;;;8.10;99.90;;;;;;5104785;28;19938;-68
2023/04/08 05:25:51;;;;;;;;;;;8.00;99.90;;;;;;5113185;28;19974;-67
2023/04/08 05:28:19;;;;;;;;;;;8.10;99.90;;;;;;5112950;28;20367;-68
2023/04/08 05:30:48;;;;;;;;;;;8.00;99.90;;;;;;5112893;28;19924;-66
2023/04/08 05:33:15;;;;;;;;;;;8.00;99.90;;;;;;5107665;28;19943;-65
2023/04/08 05:35:42;;;;;;;;;;;8.10;99.90;;;;;;5111936;28;19963;-64
2023/04/08 05:38:08;;;;;;;;;;;8.10;99.90;;;;;;5109482;28;19924;-64
2023/04/08 05:40:35;;;;;;;;;;;8.20;99.90;;;;;;5111018;28;19924;-64
2023/04/08 05:43:02;;;;;;;;;;;8.20;99.90;;;;;;5106153;28;19931;-66
2023/04/08 05:45:30;;;;;;;;;;;8.10;99.90;;;;;;5112954;28;19924;-66
2023/04/08 05:47:57;;;;;;;;;;;8.10;99.90;;;;;;5112946;28;19927;-66
2023/04/08 05:50:23;;;;;;;;;;;8.30;99.90;;;;;;5107414;28;19987;-67
2023/04/08 05:52:50;;;;;;;;;;;8.20;99.90;;;;;;5106902;28;20026;-67
2023/04/08 05:55:16;;;;;;;;;;;8.20;99.90;;;;;;5108281;28;19930;-67
2023/04/08 05:57:43;;;;;;;;;;;8.20;99.90;;;;;;5106320;28;19946;-66
2023/04/08 06:00:10;;;;;;;;;;;;;;;;;;5097814;28;20407;-68
2023/04/08 06:02:38;;;;;;;;;;;8.20;99.90;;;;;;5104485;28;20392;-65
2023/04/08 06:05:05;;;;;;;;;;;8.20;99.90;;;;;;5094348;28;19924;-67
2023/04/08 06:07:32;;;;;;;;;;;8.20;99.90;;;;;;5111881;22;20023;-68
2023/04/08 06:09:59;;;;;;;;;;;8.60;99.90;;;;;;5088698;28;19930;-68
2023/04/08 06:12:26;;;;;;;;;;;8.30;99.90;;;;;;5087312;28;20030;-68
2023/04/08 06:14:53;;;;;;;;;;;8.30;99.90;;;;;;5078792;28;19924;-68
2023/04/08 06:17:20;;;;;;;;;;;8.20;99.90;;;;;;5085507;28;19930;-68
2023/04/08 06:19:48;;;;;;;;;;;8.30;99.90;;;;;;5087351;28;20005;-69
2023/04/08 06:22:15;;;;;;;;;;;8.30;99.90;;;;;;5081510;28;19924;-68
2023/04/08 06:27:07;;;;;;;;;;;8.30;99.90;;;;;;5089476;22;20387;-69
2023/04/08 06:29:34;;;;;;;;;;;8.40;99.90;;;;;;5087917;28;19928;-68
2023/04/08 06:32:01;;;;;;;;;;;8.60;99.90;;;;;;5089936;28;19924;-68
2023/04/08 06:34:28;;;;;;;;;;;8.70;99.90;;;;;;5097047;22;19924;-68
2023/04/08 06:36:56;;;;;;;;;;;9.00;99.90;;;;;;5105692;28;19959;-67
2023/04/08 06:39:22;;;;;;;;;;;9.40;99.90;;;;;;5109920;28;19932;-67
2023/04/08 06:41:49;;;;;;;;;;;9.60;99.90;;;;;;5109732;28;19984;-67
2023/04/08 06:44:16;;;;;;;;;;;9.60;99.90;;;;;;5111075;28;20005;-66
2023/04/08 06:46:43;;;;;;;;;;;;;;;;;;5110718;28;20030;-68
2023/04/08 06:49:10;;;;;;;;;;;9.70;99.90;;;;;;5110294;28;19924;-66
2023/04/08 06:51:36;;;;;;;;;;;9.90;99.90;;;;;;5111146;28;19977;-68
2023/04/08 06:54:04;;;;;;;;;;;9.80;99.90;;;;;;5090031;28;20391;-69
2023/04/08 06:56:31;;;;;;;;;;;9.70;99.90;;;;;;5086324;28;19951;-68
2023/04/08 06:58:58;;;;;;;;;;;;;;;;;;5094384;28;19924;-67
2023/04/08 07:01:25;;;;;;;;;;;9.80;99.90;;;;;;5092471;28;19999;-68
2023/04/08 07:03:51;;;;;;;;;;;9.90;99.90;;;;;;5090512;28;19931;-68
2023/04/08 07:06:18;;;;;;;;;;;9.90;99.90;;;;;;5082507;28;19932;-69
2023/04/08 07:08:45;;;;;;;;;;;10.30;99.90;;;;;;5096255;28;19923;-68
2023/04/08 07:11:15;;;;;;;;;;;10.70;99.90;;;;;;5087663;28;20019;-69
2023/04/08 07:13:41;;;;;;;;;;;10.80;99.90;;;;;;5085316;28;19951;-69
2023/04/08 07:16:08;;;;;;;;;;;10.80;99.90;;;;;;5090304;28;20006;-69
2023/04/08 07:18:35;;;;;;;;;;;10.80;99.90;;;;;;5095980;28;20014;-69
2023/04/08 07:21:02;;;;;;;;;;;10.50;99.90;;;;;;5091185;28;19931;-69
2023/04/08 07:23:28;;;;;;;;;;;10.30;99.90;;;;;;5079833;28;19954;-68
2023/04/08 07:25:55;;;;;;;;;;;10.20;99.90;;;;;;5081226;28;19931;-69
2023/04/08 07:28:23;;;;;;;;;;;10.00;99.90;;;;;;5090736;28;19959;-69
2023/04/08 07:30:50;;;;;;;;;;;10.00;99.90;;;;;;5087356;28;19994;-70
2023/04/08 07:33:16;;;;;;;;;;;10.10;99.90;;;;;;5078151;28;19947;-70
2023/04/08 07:35:43;;;;;;;;;;;10.10;99.90;;;;;;5080201;28;20385;-69
2023/04/08 07:38:10;;;;;;;;;;;10.10;99.90;;;;;;5084971;28;20397;-70
2023/04/08 07:40:37;;;;;;;;;;;10.20;99.90;;;;;;5090777;28;19932;-69
2023/04/08 07:43:04;;;;;;;;;;;10.20;99.90;;;;;;5084937;28;19986;-68
2023/04/08 07:45:32;;;;;;;;;;;10.20;99.90;;;;;;5089470;28;20019;-69
2023/04/08 07:47:58;;;;;;;;;;;9.90;99.90;;;;;;5086022;28;19931;-69
2023/04/08 07:50:25;;;;;;;;;;;;;;;;;;5073969;28;19927;-70
2023/04/08 07:52:53;;;;;;;;;;;9.80;99.90;;;;;;5085677;28;19952;-68
2023/04/08 07:55:19;;;;;;;;;;;9.70;99.90;;;;;;5084133;28;19928;-69
2023/04/08 07:57:46;;;;;;;;;;;9.50;99.90;;;;;;5084673;28;20061;-69
2023/04/08 08:00:19;;;;;;;;;;;9.80;99.90;;;;;;5085682;28;20007;-70
2023/04/08 08:02:47;;;;;;;;;;;10.00;99.90;;;;;;5085546;28;19967;-70
2023/04/08 08:05:15;;;;;;;;;;;10.10;99.90;;;;;;5090541;28;19924;-70
2023/04/08 08:07:41;;;;;;;;;;;10.10;99.90;;;;;;5091104;28;20027;-70
2023/04/08 08:10:08;;;;;;;;;;;10.00;99.90;;;;;;5092683;28;19928;-70
2023/04/08 08:12:35;;;;;;;;;;;10.20;99.90;;;;;;5090489;28;20302;-70
2023/04/08 08:15:02;;;;;;;;;;;10.20;99.90;;;;;;5084283;28;19960;-70
2023/04/08 08:17:32;;;;;;;;;;;;;;;;;;5091083;28;20018;-70
2023/04/08 08:20:00;;;;;;;;;;;10.20;99.90;;;;;;5085875;28;20310;-70
2023/04/08 08:22:27;;;;;;;;;;;10.00;99.90;;;;;;5083005;28;20019;-70
2023/04/08 08:24:55;;;;;;;;;;;9.90;99.90;;;;;;5088568;28;19932;-70
2023/04/08 08:27:22;;;;;;;;;;;10.00;99.90;;;;;;5090624;28;19924;-72
2023/04/08 08:29:49;;;;;;;;;;;10.10;99.90;;;;;;5090212;28;20052;-71
2023/04/08 08:32:16;;;;;;;;;;;10.20;99.90;;;;;;5095332;28;19985;-69
2023/04/08 08:34:42;;;;;;;;;;;10.30;99.90;;;;;;5086044;28;20394;-72
2023/04/08 08:37:11;;;;;;;;;;;10.20;99.90;;;;;;5090435;28;19932;-70
2023/04/08 08:39:37;;;;;;;;;;;10.50;99.90;;;;;;5090937;28;19930;-71
2023/04/08 08:42:04;;;;;;;;;;;10.60;99.90;;;;;;5092133;28;20383;-69
2023/04/08 08:44:31;;;;;;;;;;;10.60;99.90;;;;;;5096709;28;19967;-70
2023/04/08 08:46:58;;;;;;;;;;;10.70;99.90;;;;;;5089269;28;19924;-72
2023/04/08 08:49:24;;;;;;;;;;;10.50;99.90;;;;;;5090719;28;20014;-71
2023/04/08 08:51:52;;;;;;;;;;;10.50;99.90;;;;;;5094120;28;19979;-71
2023/04/08 08:54:21;;;;;;;;;;;10.50;99.90;;;;;;5092341;28;19944;-68
2023/04/08 08:56:47;;;;;;;;;;;10.50;99.90;;;;;;5091956;28;19924;-71
2023/04/08 08:59:14;;;;;;;;;;;10.70;99.90;;;;;;5092640;28;19924;-67
2023/04/08 09:01:41;;;;;;;;;;;10.80;99.90;;;;;;5107849;28;20008;-69
2023/04/08 09:04:09;;;;;;;;;;;10.30;99.90;;;;;;5090784;28;19932;-69
2023/04/08 09:06:36;;;;;;;;;;;10.20;99.90;;;;;;5087253;28;19928;-69
2023/04/08 09:09:04;;;;;;;;;;;10.20;99.90;;;;;;5087309;28;19924;-69
2023/04/08 09:11:33;;;;;;;;;;;10.40;99.90;;;;;;5085969;28;19924;-69
2023/04/08 09:13:59;;;;;;;;;;;10.60;99.90;;;;;;5081616;28;19923;-67
2023/04/08 09:16:26;;;;;;;;;;;10.90;99.90;;;;;;5091933;28;20358;-68
2023/04/08 09:18:53;;;;;;;;;;;10.70;99.90;;;;;;5090563;28;19932;-68
2023/04/08 09:21:22;;;;;;;;;;;10.90;99.90;;;;;;5090673;28;20412;-68
2023/04/08 09:23:49;;;;;;;;;;;11.20;99.90;;;;;;5085038;28;19925;-67
2023/04/08 09:26:18;;;;;;;;;;;11.20;99.90;;;;;;5086200;28;20019;-67
2023/04/08 09:28:57;;;;;;;;;;;11.20;99.90;;;;;;5093074;28;20011;-70
2023/04/08 09:31:26;;;;;;;;;;;11.30;99.90;;;;;;5088200;28;19936;-67
2023/04/08 09:33:53;;;;;;;;;;;;;;;;;;5088021;28;19970;-69
2023/04/08 09:36:20;;;;;;;;;;;;;;;;;;5086261;28;19924;-69
2023/04/08 09:38:47;;;;;;;;;;;;;;;;;;5102908;28;20247;-68
2023/04/08 09:41:15;;;;;;;;;;;;;;;;;;5092055;28;19924;-68
2023/04/08 09:43:42;;;;;;;;;;;;;;;;;;5079956;28;20840;-70
2023/04/08 09:46:10;;;;;;;;;;;;;;;;;;5090130;28;19924;-68
2023/04/08 09:48:37;;;;;;;;;;;;;;;;;;5090720;28;19977;-68
2023/04/08 09:51:04;;;;;;;;;;;;;;;;;;5092308;28;19928;-69
2023/04/08 09:53:31;;;;;;;;;;;;;;;;;;5085256;28;19932;-69
2023/04/08 09:55:58;;;;;;;;;;;;;;;;;;5087427;28;20387;-67
2023/04/08 09:58:26;;;;;;;;;;;;;;;;;;5087952;28;20007;-67
2023/04/08 10:00:53;;;;;;;;;;;;;;;;;;5091182;28;19928;-68
2023/04/08 10:03:20;;;;;;;;;;;;;;;;;;5091463;28;20408;-67
2023/04/08 10:05:47;;;;;;;;;;;;;;;;;;5085130;28;19963;-68
2023/04/08 10:08:14;;;;;;;;;;;;;;;;;;5086075;28;19924;-68
2023/04/08 10:10:41;;;;;;;;;;;;;;;;;;5086002;28;19935;-68
2023/04/08 10:13:09;;;;;;;;;;;10.80;99.90;;;;;;5091197;28;19924;-68
2023/04/08 10:15:38;;;;;;;;;;;10.80;99.90;;;;;;5084889;28;19935;-68
2023/04/08 10:18:23;;;;;;;;;;;10.60;99.90;;;;;;5104053;28;19931;-69
2023/04/08 10:20:50;;;;;;;;;;;10.50;99.90;;;;;;5090166;28;19927;-69
2023/04/08 10:23:19;;;;;;;;;;;10.70;99.90;;;;;;5099806;28;19923;-69
2023/04/08 10:25:46;;;;;;;;;;;10.80;99.90;;;;;;5089406;28;19928;-69
2023/04/08 10:28:27;;;;;;;;;;;11.20;99.90;;;;;;5090032;28;20284;-70
2023/04/08 10:30:55;;;;;;;;;;;11.50;99.90;;;;;;5085338;28;19924;-68
2023/04/08 10:33:23;;;;;;;;;;;11.90;99.90;;;;;;5094915;28;19930;-69
2023/04/08 10:35:52;;;;;;;;;;;11.70;99.90;;;;;;5091704;28;20014;-69
2023/04/08 10:38:19;;;;;;;;;;;12.00;99.90;;;;;;5083086;28;20023;-68
2023/04/08 10:40:47;;;;;;;;;;;12.60;99.90;;;;;;5090334;28;19993;-68
2023/04/08 10:43:14;;;;;;;;;;;12.90;99.90;;;;;;5088437;28;19932;-68
2023/04/08 10:45:43;;;;;;;;;;;13.10;99.90;;;;;;5089649;28;19928;-68
2023/04/08 10:48:13;;;;;;;;;;;13.40;99.90;;;;;;5085054;28;20418;-67
2023/04/08 10:50:40;;;;;;;;;;;13.40;99.90;;;;;;5091320;28;19924;-68
2023/04/08 10:53:08;;;;;;;;;;;13.40;99.90;;;;;;5086652;28;19924;-70
2023/04/08 10:55:34;;;;;;;;;;;13.00;99.90;;;;;;5085951;28;19924;-68
2023/04/08 10:58:05;;;;;;;;;;;12.80;99.90;;;;;;5092733;28;19970;-68
2023/04/08 11:00:33;;;;;;;;;;;13.00;99.90;;;;;;5094241;28;19931;-69
2023/04/08 11:03:02;;;;;;;;;;;13.30;99.90;;;;;;5087959;28;20007;-69
2023/04/08 11:05:30;;;;;;;;;;;13.30;99.90;;;;;;5087386;28;19967;-69
2023/04/08 11:07:56;;;;;;;;;;;12.70;99.90;;;;;;5087366;28;19932;-69
2023/04/08 11:10:23;;;;;;;;;;;12.80;99.90;;;;;;5095290;28;20042;-70
2023/04/08 11:12:50;;;;;;;;;;;12.80;99.90;;;;;;5087663;28;19938;-70
2023/04/08 11:15:17;;;;;;;;;;;12.90;99.90;;;;;;5087060;28;20397;-70
2023/04/08 11:17:43;;;;;;;;;;;13.00;99.90;;;;;;5092866;28;20007;-69
2023/04/08 11:20:12;;;;;;;;;;;13.40;99.90;;;;;;5084124;28;19924;-69
2023/04/08 11:22:39;;;;;;;;;;;13.50;99.90;;;;;;5091613;28;19929;-69
2023/04/08 11:25:07;;;;;;;;;;;13.50;99.90;;;;;;5082927;28;19967;-69
2023/04/08 11:27:34;;;;;;;;;;;13.20;99.90;;;;;;5087518;28;19924;-69
2023/04/08 11:30:01;;;;;;;;;;;13.40;99.90;;;;;;5083617;28;19982;-68
2023/04/08 11:32:29;;;;;;;;;;;13.40;99.90;;;;;;5084989;28;19978;-69
2023/04/08 11:34:55;;;;;;;;;;;13.40;99.90;;;;;;5092994;28;19924;-69
2023/04/08 11:37:26;;;;;;;;;;;13.40;99.90;;;;;;5096219;28;19934;-69
2023/04/08 11:39:55;;;;;;;;;;;13.70;99.90;;;;;;5110419;28;19930;-68
2023/04/08 11:42:28;;;;;;;;;;;14.10;99.90;;;;;;5084716;28;19925;-67
2023/04/08 11:44:55;;;;;;;;;;;15.10;99.90;;;;;;5088629;28;19924;-69
2023/04/08 11:47:22;;;;;;;;;;;14.60;99.90;;;;;;5080248;28;19924;-69
2023/04/08 11:49:49;;;;;;;;;;;14.60;99.90;;;;;;5087377;28;20351;-69
2023/04/08 11:52:15;;;;;;;;;;;14.60;99.90;;;;;;5095684;28;19928;-70
2023/04/08 11:54:43;;;;;;;;;;;14.70;99.90;;;;;;5091663;28;19934;-70
2023/04/08 11:57:10;;;;;;;;;;;14.60;99.90;;;;;;5093861;28;19924;-68
2023/04/08 11:59:37;;;;;;;;;;;14.50;99.90;;;;;;5091047;28;20336;-69
2023/04/08 12:02:04;;;;;;;;;;;14.60;99.90;;;;;;5090425;28;20023;-70
2023/04/08 12:04:31;;;;;;;;;;;14.20;99.90;;;;;;5097408;28;19924;-69
2023/04/08 12:06:57;;;;;;;;;;;14.30;99.90;;;;;;5093806;28;19936;-69
2023/04/08 12:09:24;;;;;;;;;;;13.60;99.90;;;;;;5112701;28;20007;-70
2023/04/08 12:11:52;;;;;;;;;;;13.40;99.90;;;;;;5096442;27;20302;-70
2023/04/08 12:14:20;;;;;;;;;;;13.20;99.90;;;;;;5096816;28;19930;-69
2023/04/08 12:16:47;;;;;;;;;;;13.00;99.90;;;;;;5092684;28;19931;-69
2023/04/08 12:19:14;;;;;;;;;;;12.50;99.90;;;;;;5090096;28;19924;-70
2023/04/08 12:21:40;;;;;;;;;;;12.40;99.90;;;;;;5085872;28;20019;-69
2023/04/08 12:24:07;;;;;;;;;;;12.60;99.90;;;;;;5084048;28;19935;-70
2023/04/08 12:26:33;;;;;;;;;;;12.80;99.90;;;;;;5078924;28;19924;-68
2023/04/08 12:29:01;;;;;;;;;;;13.00;99.90;;;;;;5091184;28;20010;-68
2023/04/08 12:31:28;;;;;;;;;;;13.00;99.90;;;;;;5092411;28;19953;-68
2023/04/08 12:33:55;;;;;;;;;;;12.50;99.90;;;;;;5090844;28;20063;-68
2023/04/08 12:36:21;;;;;;;;;;;12.60;99.90;;;;;;5093463;28;20019;-69
2023/04/08 12:38:48;;;;;;;;;;;12.30;99.90;;;;;;5093405;28;20031;-69
2023/04/08 12:41:15;;;;;;;;;;;12.70;99.90;;;;;;5091727;28;20018;-68
2023/04/08 12:43:41;;;;;;;;;;;12.80;99.90;;;;;;5085407;28;19935;-70
2023/04/08 12:46:09;;;;;;;;;;;12.80;99.90;;;;;;5091686;28;20011;-70
2023/04/08 12:48:36;;;;;;;;;;;12.60;99.90;;;;;;5086212;28;19934;-69
2023/04/08 12:51:03;;;;;;;;;;;12.90;99.90;;;;;;5090054;28;19931;-70
2023/04/08 12:53:30;;;;;;;;;;;13.30;99.90;;;;;;5090910;28;20041;-71
2023/04/08 12:55:56;;;;;;;;;;;13.50;99.90;;;;;;5090724;28;20026;-70
2023/04/08 12:58:23;;;;;;;;;;;13.60;99.90;;;;;;5088324;28;19975;-69
2023/04/08 13:00:50;;;;;;;;;;;13.80;99.90;;;;;;5091070;28;19924;-69
2023/04/08 13:03:18;;;;;;;;;;;13.90;99.90;;;;;;5087917;28;19968;-69
2023/04/08 13:05:45;;;;;;;;;;;14.70;99.90;;;;;;5084106;28;19924;-70
2023/04/08 13:08:11;;;;;;;;;;;15.10;99.90;;;;;;5087904;28;20019;-71
2023/04/08 13:10:38;;;;;;;;;;;14.80;99.90;;;;;;5090812;28;20015;-69
2023/04/08 13:13:05;;;;;;;;;;;15.00;99.90;;;;;;5096293;28;20373;-69
2023/04/08 13:15:32;;;;;;;;;;;15.20;99.20;;;;;;5085164;28;19924;-69
2023/04/08 13:17:58;;;;;;;;;;;15.40;99.30;;;;;;5090957;28;20360;-70
2023/04/08 13:20:27;;;;;;;;;;;15.00;98.30;;;;;;5087531;28;20409;-70
2023/04/08 13:22:53;;;;;;;;;;;14.60;99.10;;;;;;5092327;28;19996;-70
2023/04/08 13:25:20;;;;;;;;;;;14.80;99.80;;;;;;5081254;28;20050;-69
2023/04/08 13:27:47;;;;;;;;;;;14.70;99.30;;;;;;5089510;28;19930;-70
2023/04/08 13:30:14;;;;;;;;;;;15.00;99.80;;;;;;5090856;28;19967;-70
2023/04/08 13:32:41;;;;;;;;;;;15.40;99.10;;;;;;5089584;28;19967;-70
2023/04/08 13:35:08;;;;;;;;;;;15.50;98.60;;;;;;5087990;28;19960;-70
2023/04/08 13:37:36;;;;;;;;;;;15.70;98.90;;;;;;5091942;28;19931;-70
2023/04/08 13:40:03;;;;;;;;;;;15.60;99.20;;;;;;5091842;28;19924;-69
2023/04/08 13:42:31;;;;;;;;;;;15.30;98.70;;;;;;5087956;28;20373;-70
2023/04/08 13:44:58;;;;;;;;;;;15.20;98.00;;;;;;5089584;28;19924;-71
2023/04/08 13:47:25;;;;;;;;;;;14.80;98.50;;;;;;5089836;28;19924;-71
2023/04/08 13:49:52;;;;;;;;;;;14.50;99.30;;;;;;5087772;28;19963;-70
2023/04/08 13:52:19;;;;;;;;;;;14.50;99.90;;;;;;5089664;28;19932;-70
2023/04/08 13:54:47;;;;;;;;;;;14.60;99.90;;;;;;5088248;28;19930;-69
2023/04/08 13:57:13;;;;;;;;;;;14.10;99.90;;;;;;5086516;28;19924;-70
2023/04/08 13:59:40;;;;;;;;;;;13.50;99.90;;;;;;5088334;28;19930;-70
2023/04/08 14:02:07;;;;;;;;;;;13.20;99.90;;;;;;5088040;28;19924;-70
2023/04/08 14:04:33;;;;;;;;;;;13.30;99.90;;;;;;5088460;28;19928;-71
2023/04/08 14:07:00;;;;;;;;;;;13.10;99.90;;;;;;5090557;28;20002;-70
2023/04/08 14:09:27;;;;;;;;;;;13.00;99.90;;;;;;5087389;28;19959;-70
2023/04/08 14:11:55;;;;;;;;;;;12.90;99.90;;;;;;5081478;28;20018;-70
2023/04/08 14:14:21;;;;;;;;;;;13.00;99.90;;;;;;5088865;28;19927;-71
2023/04/08 14:16:48;;;;;;;;;;;13.10;99.90;;;;;;5089379;28;20357;-69
2023/04/08 14:19:15;;;;;;;;;;;13.20;99.90;;;;;;5090142;28;19924;-70
2023/04/08 14:21:43;;;;;;;;;;;13.50;99.90;;;;;;5089076;28;21294;-70
2023/04/08 14:24:10;;;;;;;;;;;13.90;99.90;;;;;;5090876;28;20033;-71
2023/04/08 14:26:37;;;;;;;;;;;14.60;99.90;;;;;;5091744;28;19955;-70
2023/04/08 14:29:05;;;;;;;;;;;15.60;99.50;;;;;;5091588;28;20019;-70
2023/04/08 14:31:32;;;;;;;;;;;14.30;99.60;;;;;;5085663;28;19924;-70
2023/04/08 14:33:59;;;;;;;;;;;14.30;99.90;;;;;;5083823;28;19924;-71
2023/04/08 14:36:26;;;;;;;;;;;14.40;99.90;;;;;;5087079;28;19928;-70
2023/04/08 14:38:53;;;;;;;;;;;14.40;99.90;;;;;;5086663;28;19928;-70
2023/04/08 14:41:20;;;;;;;;;;;14.60;99.90;;;;;;5089654;28;20010;-70
2023/04/08 14:43:47;;;;;;;;;;;15.20;99.90;;;;;;5086976;28;19925;-70
2023/04/08 14:46:15;;;;;;;;;;;14.70;99.90;;;;;;5084986;28;19970;-69
2023/04/08 14:48:42;;;;;;;;;;;14.90;99.90;;;;;;5083200;28;19940;-69